createdAt,value
2023-04-08T00:01:14.144Z,71.86
2023-04-08T00:05:19.841Z,71.82
2023-04-08T00:09:28.989Z,71.91
2023-04-08T00:13:45.016Z,71.94
2023-04-08T00:17:57.267Z,72.04
2023-04-08T00:22:02.767Z,71.68
2023-04-08T00:26:06.102Z,71.76
2023-04-08T00:30:21.320Z,71.97
2023-04-08T00:34:27.656Z,72.12
2023-04-08T00:38:39.851Z,72.23
2023-04-08T00:42:43.516Z,72.20
2023-04-08T00:46:51.232Z,72.23
2023-04-08T00:55:15.905Z,72.16
2023-04-08T00:59:25.199Z,72.24
2023-04-08T01:03:39.243Z,72.19
2023-04-08T01:07:50.277Z,72.17
2023-04-08T01:12:01.305Z,72.33
2023-04-08T01:16:16.063Z,72.34
2023-04-08T01:20:28.943Z,72.45
2023-04-08T01:24:44.612Z,72.78
2023-04-08T01:28:57.871Z,72.54
2023-04-08T01:33:06.696Z,72.63
2023-04-08T01:37:17.096Z,72.80
2023-04-08T01:41:37.172Z,72.69
2023-04-08T01:45:45.272Z,72.33
2023-04-08T01:50:13.116Z,72.62
2023-04-08T01:54:21.945Z,72.43
2023-04-08T01:58:39.132Z,72.31
2023-04-08T02:03:11.267Z,72.44
2023-04-08T02:07:33.140Z,72.46
2023-04-08T02:11:39.777Z,72.43
2023-04-08T02:15:49.248Z,72.50
2023-04-08T02:20:06.360Z,72.49
2023-04-08T02:24:22.873Z,72.47
2023-04-08T02:28:30.602Z,72.44
2023-04-08T02:32:37.241Z,72.39
2023-04-08T02:36:46.262Z,72.25
2023-04-08T02:40:52.677Z,72.27
2023-04-08T02:44:56.129Z,72.10
2023-04-08T02:49:01.931Z,72.39
2023-04-08T02:53:22.622Z,72.39
2023-04-08T02:57:34.908Z,72.45
2023-04-08T03:01:50.789Z,72.12
2023-04-08T03:05:55.822Z,72.30
2023-04-08T03:10:07.005Z,72.20
2023-04-08T03:14:16.080Z,72.08
2023-04-08T03:18:22.675Z,71.75
2023-04-08T03:22:29.533Z,71.96
2023-04-08T03:27:12.673Z,72.34
2023-04-08T03:31:39.017Z,72.42
2023-04-08T03:36:01.113Z,72.44
2023-04-08T03:40:11.172Z,72.53
2023-04-08T03:48:44.152Z,72.89
2023-04-08T03:53:04.860Z,73.08
2023-04-08T03:57:16.683Z,73.09
2023-04-08T04:01:32.572Z,73.27
2023-04-08T04:14:37.589Z,73.49
2023-04-08T04:18:42.146Z,73.34
2023-04-08T04:22:45.306Z,73.33
2023-04-08T04:26:48.560Z,73.50
2023-04-08T04:30:51.664Z,73.71
2023-04-08T04:34:56.138Z,73.65
2023-04-08T04:38:59.093Z,73.74
2023-04-08T04:43:02.528Z,73.76
2023-04-08T04:47:05.694Z,73.63
2023-04-08T04:51:10.158Z,73.67
2023-04-08T04:55:13.346Z,73.67
2023-04-08T04:59:16.537Z,73.74
2023-04-08T05:03:19.628Z,73.64
2023-04-08T05:07:24.827Z,73.82
2023-04-08T05:11:27.830Z,73.83
2023-04-08T05:15:31.049Z,73.97
2023-04-08T05:19:34.179Z,73.89
2023-04-08T05:23:38.764Z,74.19
2023-04-08T05:27:41.741Z,74.30
2023-04-08T05:31:44.885Z,74.44
2023-04-08T05:35:48.196Z,74.37
2023-04-08T05:39:52.621Z,74.41
2023-04-08T05:43:55.649Z,74.43
2023-04-08T05:47:58.704Z,74.33
2023-04-08T05:52:01.950Z,74.55
2023-04-08T05:56:06.658Z,74.59
2023-04-08T06:00:11.583Z,75.13
2023-04-08T06:04:14.849Z,75.02
2023-04-08T06:08:18.036Z,75.10
2023-04-08T06:12:22.474Z,75.19
2023-04-08T06:16:26.087Z,75.28
2023-04-08T06:20:30.290Z,75.43
2023-04-08T06:24:34.032Z,75.46
2023-04-08T06:28:38.437Z,75.52
2023-04-08T06:32:41.648Z,75.52
2023-04-08T06:36:44.705Z,75.88
2023-04-08T06:40:47.745Z,75.72
2023-04-08T06:44:52.106Z,75.70
2023-04-08T06:48:55.613Z,75.87
2023-04-08T06:52:58.585Z,75.90
2023-04-08T06:57:01.624Z,76.30
2023-04-08T07:01:06.256Z,76.54
2023-04-08T07:05:09.606Z,76.77
2023-04-08T07:09:12.673Z,76.72
2023-04-08T07:13:15.817Z,76.38
2023-04-08T07:17:20.581Z,76.73
2023-04-08T07:21:24.208Z,77.08
2023-04-08T07:25:27.299Z,76.90
2023-04-08T07:29:31.603Z,76.72
2023-04-08T07:33:36.073Z,77.01
2023-04-08T07:37:39.086Z,76.59
2023-04-08T07:41:42.178Z,77.00
2023-04-08T07:45:45.350Z,77.08
2023-04-08T07:49:49.945Z,77.05
2023-04-08T07:53:53.105Z,77.02
2023-04-08T07:57:56.240Z,77.54
2023-04-08T08:01:59.475Z,77.73
2023-04-08T08:06:03.867Z,77.70
2023-04-08T08:10:08.093Z,77.74
2023-04-08T08:14:11.847Z,77.86
2023-04-08T08:18:14.855Z,78.39
2023-04-08T08:22:19.628Z,78.36
2023-04-08T08:26:23.195Z,78.17
2023-04-08T08:30:26.581Z,78.34
2023-04-08T08:34:29.652Z,78.33
2023-04-08T08:38:34.534Z,78.45
2023-04-08T08:42:38.038Z,78.49
2023-04-08T08:46:45.216Z,78.66
2023-04-08T08:50:48.683Z,79.01
2023-04-08T08:54:59.467Z,78.76
2023-04-08T08:59:02.683Z,78.77
2023-04-08T09:03:19.894Z,79.14
2023-04-08T09:07:26.771Z,79.03
2023-04-08T09:11:31.291Z,79.39
2023-04-08T09:15:34.422Z,79.49
2023-04-08T09:19:37.516Z,79.72
2023-04-08T09:23:42.762Z,79.53
2023-04-08T09:28:19.791Z,79.13
2023-04-08T09:32:22.821Z,79.18
2023-04-08T09:36:28.015Z,79.34
2023-04-08T09:40:35.135Z,79.02
2023-04-08T09:44:41.359Z,78.90
2023-04-08T09:48:50.126Z,78.53
2023-04-08T09:52:58.404Z,78.96
2023-04-08T09:57:06.057Z,79.81
2023-04-08T10:01:15.351Z,79.80
2023-04-08T10:05:19.378Z,78.94
2023-04-08T10:09:23.571Z,77.80
2023-04-08T10:13:29.450Z,77.91
2023-04-08T10:17:37.037Z,77.88
2023-04-08T10:21:43.284Z,78.04
2023-04-08T10:25:47.981Z,78.32
2023-04-08T10:29:52.019Z,79.09
2023-04-08T10:33:56.499Z,78.72
2023-04-08T10:37:59.878Z,77.89
2023-04-08T10:42:04.140Z,77.91
2023-04-08T10:46:07.385Z,77.46
2023-04-08T10:50:16.832Z,77.61
2023-04-08T10:54:20.126Z,77.49
2023-04-08T10:58:23.286Z,76.96
2023-04-08T11:02:34.224Z,76.66
2023-04-08T11:06:39.514Z,76.29
2023-04-08T11:10:44.991Z,76.98
2023-04-08T11:14:49.585Z,76.94
2023-04-08T11:18:53.016Z,77.12
2023-04-08T11:22:57.482Z,76.80
2023-04-08T11:27:01.437Z,76.24
2023-04-08T11:31:05.918Z,76.19
2023-04-08T11:35:09.636Z,75.68
2023-04-08T11:39:14.047Z,75.88
2023-04-08T11:43:17.118Z,75.69
2023-04-08T11:47:20.167Z,75.30
2023-04-08T11:51:23.962Z,75.56
2023-04-08T11:55:29.594Z,75.38
2023-04-08T11:59:32.614Z,75.28
2023-04-08T12:03:35.878Z,75.04
2023-04-08T12:07:39.147Z,75.02
2023-04-08T12:11:43.882Z,74.32
2023-04-08T12:15:47.250Z,74.68
2023-04-08T12:19:50.826Z,74.36
2023-04-08T12:23:53.902Z,73.29
2023-04-08T12:27:58.510Z,73.31
2023-04-08T12:32:02.558Z,73.56
2023-04-08T12:36:05.900Z,73.30
2023-04-08T12:40:10.098Z,72.83
2023-04-08T12:44:14.605Z,72.57
2023-04-08T12:48:17.679Z,72.61
2023-04-08T12:52:20.678Z,72.59
2023-04-08T12:56:23.756Z,71.93
2023-04-08T13:00:28.138Z,71.80
2023-04-08T13:04:31.185Z,71.62
2023-04-08T13:08:34.237Z,71.70
2023-04-08T13:12:40.090Z,71.17
2023-04-08T13:16:44.786Z,70.63
2023-04-08T13:20:48.020Z,70.71
2023-04-08T13:24:51.355Z,70.63
2023-04-08T13:28:57.867Z,70.96
2023-04-08T13:33:02.611Z,71.19
2023-04-08T13:37:05.655Z,71.39
2023-04-08T13:41:08.648Z,70.93
2023-04-08T13:45:12.106Z,70.72
2023-04-08T13:49:17.056Z,70.98
2023-04-08T13:53:20.115Z,71.03
2023-04-08T13:57:24.281Z,70.17
2023-04-08T14:01:27.383Z,70.32
2023-04-08T14:05:31.909Z,69.84
2023-04-08T14:09:35.856Z,69.29
2023-04-08T14:13:38.929Z,68.99
2023-04-08T14:17:42.636Z,68.99
2023-04-08T14:21:47.040Z,69.10
2023-04-08T14:25:50.064Z,68.59
2023-04-08T14:29:53.182Z,68.62
2023-04-08T14:33:56.362Z,68.31
2023-04-08T14:38:00.869Z,67.96
2023-04-08T14:42:03.958Z,67.78
2023-04-08T14:46:06.990Z,68.11
2023-04-08T14:50:10.777Z,68.13
2023-04-08T14:54:16.879Z,67.81
2023-04-08T14:58:20.980Z,67.47
2023-04-08T15:02:24.117Z,67.33
2023-04-08T15:06:27.649Z,67.51
2023-04-08T15:10:32.154Z,67.36
2023-04-08T15:14:35.293Z,67.46
2023-04-08T15:18:38.541Z,67.45
2023-04-08T15:22:41.527Z,67.30
2023-04-08T15:26:45.931Z,67.60
2023-04-08T15:30:50.401Z,67.67
2023-04-08T15:34:53.559Z,67.94
2023-04-08T15:38:56.843Z,68.03
2023-04-08T15:43:01.401Z,68.18
2023-04-08T15:47:04.903Z,68.30
2023-04-08T15:51:08.781Z,68.18
2023-04-08T15:55:12.036Z,67.85
2023-04-08T15:59:16.497Z,68.01
2023-04-08T16:03:19.626Z,67.81
2023-04-08T16:07:22.758Z,68.28
2023-04-08T16:11:26.515Z,67.87
2023-04-08T16:15:30.923Z,68.20
2023-04-08T16:19:34.475Z,68.58
2023-04-08T16:23:38.715Z,68.50
2023-04-08T16:27:41.902Z,68.95
2023-04-08T16:31:46.732Z,69.02
2023-04-08T16:35:50.529Z,69.64
2023-04-08T16:39:54.200Z,69.63
2023-04-08T16:43:57.858Z,70.40
2023-04-08T16:48:02.636Z,70.68
2023-04-08T16:52:05.984Z,71.02
2023-04-08T16:56:14.836Z,71.00
2023-04-08T17:00:19.805Z,71.39
2023-04-08T17:04:25.892Z,71.48
2023-04-08T17:08:29.165Z,72.06
2023-04-08T17:12:32.391Z,71.88
2023-04-08T17:16:35.977Z,72.37
2023-04-08T17:20:41.145Z,72.55
2023-04-08T17:24:47.770Z,72.98
2023-04-08T17:28:51.489Z,72.94
2023-04-08T17:32:54.872Z,73.04
2023-04-08T17:36:59.268Z,73.44
2023-04-08T17:41:02.435Z,73.73
2023-04-08T17:45:06.437Z,73.81
2023-04-08T17:49:12.966Z,73.84
2023-04-08T17:53:17.622Z,73.92
2023-04-08T17:57:20.850Z,74.35
2023-04-08T18:01:23.942Z,74.71
2023-04-08T18:05:27.339Z,75.00
2023-04-08T18:09:31.752Z,74.58
2023-04-08T18:13:34.814Z,75.20
2023-04-08T18:17:38.121Z,75.24
2023-04-08T18:21:41.320Z,75.52
2023-04-08T18:25:47.062Z,75.28
2023-04-08T18:29:53.329Z,75.35
2023-04-08T18:33:56.833Z,75.47
2023-04-08T18:37:59.930Z,75.56
2023-04-08T18:42:04.343Z,75.46
2023-04-08T18:46:07.426Z,75.33
2023-04-08T18:50:11.140Z,75.32
2023-04-08T18:54:14.223Z,75.42
2023-04-08T18:58:18.694Z,75.59
2023-04-08T19:02:22.778Z,75.77
2023-04-08T19:06:26.230Z,75.86
2023-04-08T19:10:31.164Z,75.91
2023-04-08T19:14:36.477Z,75.84
2023-04-08T19:18:39.543Z,76.27
2023-04-08T19:22:42.753Z,76.21
2023-04-08T19:26:45.836Z,76.48
2023-04-08T19:30:51.014Z,76.55
2023-04-08T19:34:54.362Z,76.72
2023-04-08T19:38:57.464Z,76.62
2023-04-08T19:43:00.457Z,76.68
2023-04-08T19:47:05.550Z,76.72
2023-04-08T19:51:08.654Z,76.73
2023-04-08T19:55:11.773Z,76.73
2023-04-08T19:59:16.201Z,76.82
2023-04-08T20:03:21.406Z,77.13
2023-04-08T20:07:24.615Z,76.85
2023-04-08T20:11:27.732Z,76.87
2023-04-08T20:15:31.154Z,77.22
2023-04-08T20:19:35.638Z,77.10
2023-04-08T20:23:44.052Z,77.15
2023-04-08T20:27:47.206Z,77.35
2023-04-08T20:31:51.299Z,77.32
2023-04-08T20:35:57.273Z,77.37
2023-04-08T20:40:00.302Z,77.43
2023-04-08T20:44:03.347Z,77.59
2023-04-08T20:48:07.462Z,77.57
2023-04-08T20:52:12.016Z,77.35
2023-04-08T20:56:15.527Z,77.42
2023-04-08T21:00:18.741Z,77.45
2023-04-08T21:04:24.294Z,77.48
2023-04-08T21:08:28.763Z,77.60
2023-04-08T21:12:31.817Z,77.52
2023-04-08T21:16:34.879Z,77.38
2023-04-08T21:20:38.072Z,77.47
2023-04-08T21:24:42.683Z,77.31
2023-04-08T21:28:45.761Z,77.38
2023-04-08T21:32:48.900Z,77.38
2023-04-08T21:36:52.100Z,77.26
2023-04-08T21:40:56.550Z,77.30
2023-04-08T21:44:59.723Z,77.53
2023-04-08T21:49:02.774Z,77.32
2023-04-08T21:53:06.007Z,77.28
2023-04-08T21:57:11.001Z,77.10
2023-04-08T22:01:14.098Z,77.20
2023-04-08T22:05:17.394Z,77.42
2023-04-08T22:09:20.528Z,77.19
2023-04-08T22:13:24.892Z,77.10
2023-04-08T22:17:27.961Z,77.11
2023-04-08T22:21:31.661Z,76.87
2023-04-08T22:25:35.455Z,77.01
2023-04-08T22:29:39.818Z,77.24
2023-04-08T22:33:43.038Z,77.12
2023-04-08T22:37:46.200Z,77.05
2023-04-08T22:41:49.314Z,77.25
2023-04-08T22:45:53.859Z,77.25
2023-04-08T22:49:56.864Z,77.42
2023-04-08T22:53:59.891Z,77.34
2023-04-08T22:58:03.038Z,77.21
2023-04-08T23:02:07.510Z,77.45
2023-04-08T23:06:10.909Z,77.49
2023-04-08T23:10:13.942Z,77.53
2023-04-08T23:14:17.924Z,77.46
2023-04-08T23:18:22.287Z,77.57
2023-04-08T23:22:25.385Z,77.84
2023-04-08T23:26:28.544Z,77.89
2023-04-08T23:30:31.578Z,77.97
2023-04-08T23:34:38.074Z,78.08
2023-04-08T23:38:41.368Z,78.04
2023-04-08T23:42:44.361Z,78.09
2023-04-08T23:46:47.426Z,78.44
2023-04-08T23:50:53.268Z,78.54
2023-04-08T23:54:56.318Z,78.81
2023-04-08T23:58:59.429Z,78.74
